sensor_id;sensor_type;location;lat;lon;timestamp;P1;durP1;ratioP1;P2;durP2;ratioP2
35522;SDS011;61478;50.820;4.330;2023-07-22T00:01:09;10.95;;;9.85;;
35522;SDS011;61478;50.820;4.330;2023-07-22T00:03:35;12.32;;;9.98;;
35522;SDS011;61478;50.820;4.330;2023-07-22T00:06:08;13.18;;;10.20;;
35522;SDS011;61478;50.820;4.330;2023-07-22T00:08:35;12.93;;;9.60;;
35522;SDS011;61478;50.820;4.330;2023-07-22T00:11:03;18.77;;;10.25;;
35522;SDS011;61478;50.820;4.330;2023-07-22T00:13:30;11.68;;;10.45;;
35522;SDS011;61478;50.820;4.330;2023-07-22T00:15:56;12.32;;;10.30;;
35522;SDS011;61478;50.820;4.330;2023-07-22T00:18:24;13.00;;;9.82;;
35522;SDS011;61478;50.820;4.330;2023-07-22T00:20:52;17.65;;;11.02;;
35522;SDS011;61478;50.820;4.330;2023-07-22T00:23:19;13.13;;;10.90;;
35522;SDS011;61478;50.820;4.330;2023-07-22T00:25:45;14.20;;;10.57;;
35522;SDS011;61478;50.820;4.330;2023-07-22T00:28:11;11.05;;;9.55;;
35522;SDS011;61478;50.820;4.330;2023-07-22T00:30:38;12.32;;;9.88;;
35522;SDS011;61478;50.820;4.330;2023-07-22T00:33:04;14.10;;;10.32;;
35522;SDS011;61478;50.820;4.330;2023-07-22T00:35:31;14.13;;;10.63;;
35522;SDS011;61478;50.820;4.330;2023-07-22T00:37:58;13.93;;;10.50;;
35522;SDS011;61478;50.820;4.330;2023-07-22T00:40:24;16.95;;;10.43;;
35522;SDS011;61478;50.820;4.330;2023-07-22T00:42:50;13.63;;;10.57;;
35522;SDS011;61478;50.820;4.330;2023-07-22T00:45:19;15.05;;;10.38;;
35522;SDS011;61478;50.820;4.330;2023-07-22T00:47:45;13.98;;;10.93;;
35522;SDS011;61478;50.820;4.330;2023-07-22T00:50:11;20.42;;;12.02;;
35522;SDS011;61478;50.820;4.330;2023-07-22T00:52:37;16.83;;;10.52;;
35522;SDS011;61478;50.820;4.330;2023-07-22T00:55:04;12.95;;;10.45;;
35522;SDS011;61478;50.820;4.330;2023-07-22T00:57:30;20.98;;;10.65;;
35522;SDS011;61478;50.820;4.330;2023-07-22T00:59:56;16.58;;;9.93;;
35522;SDS011;61478;50.820;4.330;2023-07-22T01:02:22;11.60;;;10.15;;
35522;SDS011;61478;50.820;4.330;2023-07-22T01:04:49;22.65;;;11.45;;
35522;SDS011;61478;50.820;4.330;2023-07-22T01:07:17;20.00;;;11.35;;
35522;SDS011;61478;50.820;4.330;2023-07-22T01:09:43;15.70;;;11.63;;
35522;SDS011;61478;50.820;4.330;2023-07-22T01:12:09;12.10;;;10.82;;
35522;SDS011;61478;50.820;4.330;2023-07-22T01:14:36;16.42;;;11.25;;
35522;SDS011;61478;50.820;4.330;2023-07-22T01:17:07;13.93;;;10.52;;
35522;SDS011;61478;50.820;4.330;2023-07-22T01:19:34;13.77;;;10.65;;
35522;SDS011;61478;50.820;4.330;2023-07-22T01:22:04;13.27;;;10.90;;
35522;SDS011;61478;50.820;4.330;2023-07-22T01:24:32;21.88;;;11.05;;
35522;SDS011;61478;50.820;4.330;2023-07-22T01:26:59;15.48;;;10.95;;
35522;SDS011;61478;50.820;4.330;2023-07-22T01:29:25;16.88;;;11.40;;
35522;SDS011;61478;50.820;4.330;2023-07-22T01:31:53;15.60;;;10.90;;
35522;SDS011;61478;50.820;4.330;2023-07-22T01:34:20;16.73;;;10.90;;
35522;SDS011;61478;50.820;4.330;2023-07-22T01:36:47;16.90;;;10.40;;
35522;SDS011;61478;50.820;4.330;2023-07-22T01:39:14;13.45;;;10.95;;
35522;SDS011;61478;50.820;4.330;2023-07-22T01:41:40;14.35;;;11.18;;
35522;SDS011;61478;50.820;4.330;2023-07-22T01:44:07;17.98;;;11.63;;
35522;SDS011;61478;50.820;4.330;2023-07-22T01:46:33;13.77;;;11.45;;
35522;SDS011;61478;50.820;4.330;2023-07-22T01:48:59;15.13;;;11.40;;
35522;SDS011;61478;50.820;4.330;2023-07-22T01:51:27;15.43;;;11.38;;
35522;SDS011;61478;50.820;4.330;2023-07-22T01:53:52;16.50;;;11.88;;
35522;SDS011;61478;50.820;4.330;2023-07-22T01:56:21;15.20;;;11.30;;
35522;SDS011;61478;50.820;4.330;2023-07-22T01:58:47;15.75;;;12.48;;
35522;SDS011;61478;50.820;4.330;2023-07-22T02:01:14;18.80;;;11.68;;
35522;SDS011;61478;50.820;4.330;2023-07-22T02:03:41;19.45;;;11.60;;
35522;SDS011;61478;50.820;4.330;2023-07-22T02:06:07;16.63;;;11.13;;
35522;SDS011;61478;50.820;4.330;2023-07-22T02:08:33;19.92;;;11.40;;
35522;SDS011;61478;50.820;4.330;2023-07-22T02:11:03;13.90;;;11.20;;
35522;SDS011;61478;50.820;4.330;2023-07-22T02:13:31;14.13;;;11.52;;
35522;SDS011;61478;50.820;4.330;2023-07-22T02:15:57;15.93;;;11.68;;
35522;SDS011;61478;50.820;4.330;2023-07-22T02:18:23;16.25;;;10.82;;
35522;SDS011;61478;50.820;4.330;2023-07-22T02:20:48;19.13;;;11.88;;
35522;SDS011;61478;50.820;4.330;2023-07-22T02:23:14;16.83;;;11.75;;
35522;SDS011;61478;50.820;4.330;2023-07-22T02:25:40;21.55;;;13.32;;
35522;SDS011;61478;50.820;4.330;2023-07-22T02:28:06;16.48;;;11.68;;
35522;SDS011;61478;50.820;4.330;2023-07-22T02:30:36;16.30;;;11.68;;
35522;SDS011;61478;50.820;4.330;2023-07-22T02:33:02;16.23;;;12.77;;
35522;SDS011;61478;50.820;4.330;2023-07-22T02:35:30;21.65;;;12.88;;
35522;SDS011;61478;50.820;4.330;2023-07-22T02:37:56;19.17;;;13.48;;
35522;SDS011;61478;50.820;4.330;2023-07-22T02:40:22;19.33;;;13.00;;
35522;SDS011;61478;50.820;4.330;2023-07-22T02:42:48;20.92;;;13.70;;
35522;SDS011;61478;50.820;4.330;2023-07-22T02:45:14;19.08;;;13.30;;
35522;SDS011;61478;50.820;4.330;2023-07-22T02:47:40;22.38;;;12.93;;
35522;SDS011;61478;50.820;4.330;2023-07-22T02:50:06;19.20;;;13.60;;
35522;SDS011;61478;50.820;4.330;2023-07-22T02:52:32;20.05;;;14.80;;
35522;SDS011;61478;50.820;4.330;2023-07-22T02:57:36;19.67;;;13.27;;
35522;SDS011;61478;50.820;4.330;2023-07-22T03:00:02;20.02;;;14.98;;
35522;SDS011;61478;50.820;4.330;2023-07-22T03:02:41;20.63;;;14.85;;
35522;SDS011;61478;50.820;4.330;2023-07-22T03:05:07;22.80;;;15.25;;
35522;SDS011;61478;50.820;4.330;2023-07-22T03:07:37;20.17;;;15.73;;
35522;SDS011;61478;50.820;4.330;2023-07-22T03:10:06;21.27;;;15.13;;
35522;SDS011;61478;50.820;4.330;2023-07-22T03:12:33;22.00;;;15.05;;
35522;SDS011;61478;50.820;4.330;2023-07-22T03:15:00;21.55;;;15.55;;
35522;SDS011;61478;50.820;4.330;2023-07-22T03:17:30;20.55;;;14.93;;
35522;SDS011;61478;50.820;4.330;2023-07-22T03:19:56;28.13;;;15.80;;
35522;SDS011;61478;50.820;4.330;2023-07-22T03:22:21;25.23;;;16.83;;
35522;SDS011;61478;50.820;4.330;2023-07-22T03:24:48;19.75;;;14.40;;
35522;SDS011;61478;50.820;4.330;2023-07-22T03:27:14;22.23;;;14.73;;
35522;SDS011;61478;50.820;4.330;2023-07-22T03:29:42;21.02;;;15.00;;
35522;SDS011;61478;50.820;4.330;2023-07-22T03:32:08;22.67;;;16.08;;
35522;SDS011;61478;50.820;4.330;2023-07-22T03:34:34;19.23;;;15.13;;
35522;SDS011;61478;50.820;4.330;2023-07-22T03:37:00;30.05;;;14.35;;
35522;SDS011;61478;50.820;4.330;2023-07-22T03:39:26;24.08;;;15.82;;
35522;SDS011;61478;50.820;4.330;2023-07-22T03:41:52;23.38;;;14.40;;
35522;SDS011;61478;50.820;4.330;2023-07-22T03:44:18;20.05;;;14.40;;
35522;SDS011;61478;50.820;4.330;2023-07-22T03:46:43;24.90;;;15.68;;
35522;SDS011;61478;50.820;4.330;2023-07-22T03:49:09;19.65;;;14.70;;
35522;SDS011;61478;50.820;4.330;2023-07-22T03:51:35;28.27;;;15.23;;
35522;SDS011;61478;50.820;4.330;2023-07-22T03:54:01;25.73;;;14.68;;
35522;SDS011;61478;50.820;4.330;2023-07-22T03:56:27;24.23;;;14.98;;
35522;SDS011;61478;50.820;4.330;2023-07-22T03:58:53;21.80;;;14.88;;
35522;SDS011;61478;50.820;4.330;2023-07-22T04:01:19;20.83;;;13.63;;
35522;SDS011;61478;50.820;4.330;2023-07-22T04:03:45;22.38;;;14.00;;
35522;SDS011;61478;50.820;4.330;2023-07-22T04:06:11;21.75;;;14.20;;
35522;SDS011;61478;50.820;4.330;2023-07-22T04:08:37;22.08;;;13.57;;
35522;SDS011;61478;50.820;4.330;2023-07-22T04:11:03;20.25;;;14.40;;
35522;SDS011;61478;50.820;4.330;2023-07-22T04:13:29;20.90;;;13.57;;
35522;SDS011;61478;50.820;4.330;2023-07-22T04:15:55;23.92;;;14.00;;
35522;SDS011;61478;50.820;4.330;2023-07-22T04:18:21;16.85;;;13.27;;
35522;SDS011;61478;50.820;4.330;2023-07-22T04:20:47;25.75;;;14.95;;
35522;SDS011;61478;50.820;4.330;2023-07-22T04:23:13;17.40;;;13.80;;
35522;SDS011;61478;50.820;4.330;2023-07-22T04:25:39;23.10;;;13.82;;
35522;SDS011;61478;50.820;4.330;2023-07-22T04:28:06;25.77;;;15.38;;
35522;SDS011;61478;50.820;4.330;2023-07-22T04:30:33;21.08;;;14.32;;
35522;SDS011;61478;50.820;4.330;2023-07-22T04:32:59;19.38;;;12.48;;
35522;SDS011;61478;50.820;4.330;2023-07-22T04:35:25;19.85;;;13.05;;
35522;SDS011;61478;50.820;4.330;2023-07-22T04:37:51;22.30;;;14.88;;
35522;SDS011;61478;50.820;4.330;2023-07-22T04:40:17;19.38;;;13.55;;
35522;SDS011;61478;50.820;4.330;2023-07-22T04:42:44;22.25;;;13.77;;
35522;SDS011;61478;50.820;4.330;2023-07-22T04:45:11;22.40;;;14.63;;
35522;SDS011;61478;50.820;4.330;2023-07-22T04:47:37;21.98;;;13.98;;
35522;SDS011;61478;50.820;4.330;2023-07-22T04:50:08;28.30;;;15.52;;
35522;SDS011;61478;50.820;4.330;2023-07-22T04:52:35;26.80;;;13.32;;
35522;SDS011;61478;50.820;4.330;2023-07-22T04:55:02;23.50;;;14.00;;
35522;SDS011;61478;50.820;4.330;2023-07-22T04:57:37;26.25;;;14.70;;
35522;SDS011;61478;50.820;4.330;2023-07-22T05:00:04;25.90;;;13.20;;
35522;SDS011;61478;50.820;4.330;2023-07-22T05:02:31;23.17;;;13.30;;
35522;SDS011;61478;50.820;4.330;2023-07-22T05:04:57;22.52;;;13.55;;
35522;SDS011;61478;50.820;4.330;2023-07-22T05:07:23;26.65;;;14.32;;
35522;SDS011;61478;50.820;4.330;2023-07-22T05:09:49;22.73;;;13.07;;
35522;SDS011;61478;50.820;4.330;2023-07-22T05:12:17;19.98;;;13.25;;
35522;SDS011;61478;50.820;4.330;2023-07-22T05:14:44;16.88;;;12.05;;
35522;SDS011;61478;50.820;4.330;2023-07-22T05:17:11;20.70;;;12.32;;
35522;SDS011;61478;50.820;4.330;2023-07-22T05:19:37;22.83;;;13.13;;
35522;SDS011;61478;50.820;4.330;2023-07-22T05:22:02;25.35;;;13.73;;
35522;SDS011;61478;50.820;4.330;2023-07-22T05:24:28;20.88;;;13.07;;
35522;SDS011;61478;50.820;4.330;2023-07-22T05:26:54;19.45;;;12.00;;
35522;SDS011;61478;50.820;4.330;2023-07-22T05:29:20;25.13;;;12.98;;
35522;SDS011;61478;50.820;4.330;2023-07-22T05:31:46;21.85;;;11.43;;
35522;SDS011;61478;50.820;4.330;2023-07-22T05:34:12;22.52;;;12.10;;
35522;SDS011;61478;50.820;4.330;2023-07-22T05:36:38;23.33;;;12.20;;
35522;SDS011;61478;50.820;4.330;2023-07-22T05:39:04;21.52;;;11.52;;
35522;SDS011;61478;50.820;4.330;2023-07-22T05:41:32;21.00;;;11.48;;
35522;SDS011;61478;50.820;4.330;2023-07-22T05:43:58;23.40;;;11.98;;
35522;SDS011;61478;50.820;4.330;2023-07-22T05:46:24;20.67;;;11.80;;
35522;SDS011;61478;50.820;4.330;2023-07-22T05:48:50;19.85;;;11.55;;
35522;SDS011;61478;50.820;4.330;2023-07-22T05:51:16;22.67;;;11.10;;
35522;SDS011;61478;50.820;4.330;2023-07-22T05:53:43;19.83;;;10.68;;
35522;SDS011;61478;50.820;4.330;2023-07-22T05:56:09;19.40;;;11.25;;
35522;SDS011;61478;50.820;4.330;2023-07-22T05:58:35;23.08;;;11.77;;
35522;SDS011;61478;50.820;4.330;2023-07-22T06:01:01;21.58;;;10.45;;
35522;SDS011;61478;50.820;4.330;2023-07-22T06:03:30;20.52;;;10.45;;
35522;SDS011;61478;50.820;4.330;2023-07-22T06:05:56;20.55;;;9.95;;
35522;SDS011;61478;50.820;4.330;2023-07-22T06:08:22;20.52;;;10.88;;
35522;SDS011;61478;50.820;4.330;2023-07-22T06:10:48;20.10;;;9.55;;
35522;SDS011;61478;50.820;4.330;2023-07-22T06:13:14;16.38;;;9.25;;
35522;SDS011;61478;50.820;4.330;2023-07-22T06:15:40;20.27;;;10.10;;
35522;SDS011;61478;50.820;4.330;2023-07-22T06:18:05;20.02;;;9.57;;
35522;SDS011;61478;50.820;4.330;2023-07-22T06:20:34;16.92;;;9.05;;
35522;SDS011;61478;50.820;4.330;2023-07-22T06:23:01;24.60;;;10.55;;
35522;SDS011;61478;50.820;4.330;2023-07-22T06:25:27;14.88;;;10.57;;
35522;SDS011;61478;50.820;4.330;2023-07-22T06:27:53;17.90;;;9.18;;
35522;SDS011;61478;50.820;4.330;2023-07-22T06:30:19;14.98;;;9.65;;
35522;SDS011;61478;50.820;4.330;2023-07-22T06:32:45;16.58;;;9.43;;
35522;SDS011;61478;50.820;4.330;2023-07-22T06:35:12;17.08;;;9.57;;
35522;SDS011;61478;50.820;4.330;2023-07-22T06:37:37;15.80;;;9.13;;
35522;SDS011;61478;50.820;4.330;2023-07-22T06:40:04;22.20;;;9.25;;
35522;SDS011;61478;50.820;4.330;2023-07-22T06:42:30;47.88;;;12.80;;
35522;SDS011;61478;50.820;4.330;2023-07-22T06:44:56;22.23;;;10.05;;
35522;SDS011;61478;50.820;4.330;2023-07-22T06:47:22;19.88;;;9.70;;
35522;SDS011;61478;50.820;4.330;2023-07-22T06:49:48;21.08;;;8.60;;
35522;SDS011;61478;50.820;4.330;2023-07-22T06:52:15;18.77;;;8.90;;
35522;SDS011;61478;50.820;4.330;2023-07-22T06:54:41;17.85;;;9.90;;
35522;SDS011;61478;50.820;4.330;2023-07-22T06:57:07;18.45;;;9.55;;
35522;SDS011;61478;50.820;4.330;2023-07-22T06:59:33;19.90;;;9.20;;
35522;SDS011;61478;50.820;4.330;2023-07-22T07:01:59;16.42;;;9.88;;
35522;SDS011;61478;50.820;4.330;2023-07-22T07:04:29;19.70;;;9.73;;
35522;SDS011;61478;50.820;4.330;2023-07-22T07:06:56;15.38;;;9.65;;
35522;SDS011;61478;50.820;4.330;2023-07-22T07:09:22;13.60;;;8.80;;
35522;SDS011;61478;50.820;4.330;2023-07-22T07:11:48;17.48;;;9.25;;
35522;SDS011;61478;50.820;4.330;2023-07-22T07:14:13;13.48;;;8.30;;
35522;SDS011;61478;50.820;4.330;2023-07-22T07:16:39;14.02;;;8.18;;
35522;SDS011;61478;50.820;4.330;2023-07-22T07:19:05;17.58;;;8.02;;
35522;SDS011;61478;50.820;4.330;2023-07-22T07:21:31;13.93;;;8.45;;
35522;SDS011;61478;50.820;4.330;2023-07-22T07:23:57;15.82;;;8.43;;
35522;SDS011;61478;50.820;4.330;2023-07-22T07:26:23;17.42;;;9.65;;
35522;SDS011;61478;50.820;4.330;2023-07-22T07:28:49;23.60;;;9.48;;
35522;SDS011;61478;50.820;4.330;2023-07-22T07:31:18;16.95;;;8.02;;
35522;SDS011;61478;50.820;4.330;2023-07-22T07:33:44;22.73;;;8.73;;
35522;SDS011;61478;50.820;4.330;2023-07-22T07:36:10;19.20;;;8.77;;
35522;SDS011;61478;50.820;4.330;2023-07-22T07:38:36;18.10;;;8.25;;
35522;SDS011;61478;50.820;4.330;2023-07-22T07:41:03;16.08;;;7.63;;
35522;SDS011;61478;50.820;4.330;2023-07-22T07:43:36;15.30;;;8.45;;
35522;SDS011;61478;50.820;4.330;2023-07-22T07:46:13;17.85;;;7.25;;
35522;SDS011;61478;50.820;4.330;2023-07-22T07:48:43;13.18;;;7.05;;
35522;SDS011;61478;50.820;4.330;2023-07-22T07:51:11;13.48;;;7.50;;
35522;SDS011;61478;50.820;4.330;2023-07-22T07:53:39;17.45;;;8.13;;
35522;SDS011;61478;50.820;4.330;2023-07-22T07:56:06;17.35;;;7.22;;
35522;SDS011;61478;50.820;4.330;2023-07-22T07:58:32;10.30;;;7.10;;
35522;SDS011;61478;50.820;4.330;2023-07-22T08:00:58;15.40;;;7.43;;
35522;SDS011;61478;50.820;4.330;2023-07-22T08:03:24;19.27;;;7.72;;
35522;SDS011;61478;50.820;4.330;2023-07-22T08:05:49;13.25;;;6.93;;
35522;SDS011;61478;50.820;4.330;2023-07-22T08:08:16;14.23;;;8.35;;
35522;SDS011;61478;50.820;4.330;2023-07-22T08:10:41;13.55;;;6.68;;
35522;SDS011;61478;50.820;4.330;2023-07-22T08:13:09;18.52;;;7.15;;
35522;SDS011;61478;50.820;4.330;2023-07-22T08:15:35;13.40;;;6.85;;
35522;SDS011;61478;50.820;4.330;2023-07-22T08:18:02;11.60;;;6.25;;
35522;SDS011;61478;50.820;4.330;2023-07-22T08:20:29;16.08;;;7.35;;
35522;SDS011;61478;50.820;4.330;2023-07-22T08:22:55;13.95;;;6.10;;
35522;SDS011;61478;50.820;4.330;2023-07-22T08:25:21;12.82;;;6.75;;
35522;SDS011;61478;50.820;4.330;2023-07-22T08:27:47;11.25;;;5.63;;
35522;SDS011;61478;50.820;4.330;2023-07-22T08:30:13;13.18;;;5.55;;
35522;SDS011;61478;50.820;4.330;2023-07-22T08:32:39;14.95;;;5.95;;
35522;SDS011;61478;50.820;4.330;2023-07-22T08:35:05;13.75;;;5.97;;
35522;SDS011;61478;50.820;4.330;2023-07-22T08:37:32;10.82;;;5.65;;
35522;SDS011;61478;50.820;4.330;2023-07-22T08:39:58;13.45;;;5.35;;
35522;SDS011;61478;50.820;4.330;2023-07-22T08:42:23;11.15;;;5.88;;
35522;SDS011;61478;50.820;4.330;2023-07-22T08:44:54;14.20;;;5.68;;
35522;SDS011;61478;50.820;4.330;2023-07-22T08:47:22;13.50;;;5.25;;
35522;SDS011;61478;50.820;4.330;2023-07-22T08:49:54;12.35;;;4.93;;
35522;SDS011;61478;50.820;4.330;2023-07-22T08:52:23;13.25;;;4.95;;
35522;SDS011;61478;50.820;4.330;2023-07-22T08:54:49;12.02;;;4.00;;
35522;SDS011;61478;50.820;4.330;2023-07-22T08:57:16;9.57;;;4.75;;
35522;SDS011;61478;50.820;4.330;2023-07-22T08:59:44;13.02;;;4.13;;
35522;SDS011;61478;50.820;4.330;2023-07-22T09:02:12;12.48;;;4.60;;
35522;SDS011;61478;50.820;4.330;2023-07-22T09:04:41;10.13;;;3.50;;
35522;SDS011;61478;50.820;4.330;2023-07-22T09:07:07;12.20;;;3.92;;
35522;SDS011;61478;50.820;4.330;2023-07-22T09:09:36;6.75;;;2.92;;
35522;SDS011;61478;50.820;4.330;2023-07-22T09:12:02;9.63;;;3.80;;
35522;SDS011;61478;50.820;4.330;2023-07-22T09:14:29;9.27;;;3.17;;
35522;SDS011;61478;50.820;4.330;2023-07-22T09:16:57;5.13;;;3.00;;
35522;SDS011;61478;50.820;4.330;2023-07-22T09:19:23;8.38;;;3.05;;
35522;SDS011;61478;50.820;4.330;2023-07-22T09:21:50;7.80;;;3.50;;
35522;SDS011;61478;50.820;4.330;2023-07-22T09:24:20;4.70;;;2.65;;
35522;SDS011;61478;50.820;4.330;2023-07-22T09:26:47;5.93;;;3.10;;
35522;SDS011;61478;50.820;4.330;2023-07-22T09:29:13;6.95;;;3.25;;
35522;SDS011;61478;50.820;4.330;2023-07-22T09:31:50;7.22;;;2.75;;
35522;SDS011;61478;50.820;4.330;2023-07-22T09:34:17;12.85;;;3.20;;
35522;SDS011;61478;50.820;4.330;2023-07-22T09:36:56;9.18;;;3.25;;
35522;SDS011;61478;50.820;4.330;2023-07-22T09:39:25;5.70;;;3.08;;
35522;SDS011;61478;50.820;4.330;2023-07-22T09:41:51;8.48;;;2.80;;
35522;SDS011;61478;50.820;4.330;2023-07-22T09:44:20;4.60;;;2.53;;
35522;SDS011;61478;50.820;4.330;2023-07-22T09:46:48;6.03;;;2.42;;
35522;SDS011;61478;50.820;4.330;2023-07-22T09:49:15;7.35;;;3.53;;
35522;SDS011;61478;50.820;4.330;2023-07-22T09:51:42;6.63;;;3.05;;
35522;SDS011;61478;50.820;4.330;2023-07-22T09:54:08;10.52;;;3.05;;
35522;SDS011;61478;50.820;4.330;2023-07-22T09:56:46;6.15;;;2.30;;
35522;SDS011;61478;50.820;4.330;2023-07-22T09:59:13;6.03;;;2.50;;
35522;SDS011;61478;50.820;4.330;2023-07-22T10:01:40;8.35;;;3.00;;
35522;SDS011;61478;50.820;4.330;2023-07-22T10:04:08;4.03;;;2.40;;
35522;SDS011;61478;50.820;4.330;2023-07-22T10:06:35;6.85;;;2.40;;
35522;SDS011;61478;50.820;4.330;2023-07-22T10:09:05;2.30;;;1.80;;
35522;SDS011;61478;50.820;4.330;2023-07-22T10:11:37;3.75;;;2.05;;
35522;SDS011;61478;50.820;4.330;2023-07-22T10:14:04;11.05;;;2.17;;
35522;SDS011;61478;50.820;4.330;2023-07-22T10:16:30;2.67;;;1.92;;
35522;SDS011;61478;50.820;4.330;2023-07-22T10:18:57;2.45;;;1.65;;
35522;SDS011;61478;50.820;4.330;2023-07-22T10:21:24;4.13;;;1.98;;
35522;SDS011;61478;50.820;4.330;2023-07-22T10:23:51;3.60;;;2.03;;
35522;SDS011;61478;50.820;4.330;2023-07-22T10:26:17;13.23;;;2.08;;
35522;SDS011;61478;50.820;4.330;2023-07-22T10:28:45;3.33;;;2.05;;
35522;SDS011;61478;50.820;4.330;2023-07-22T10:31:15;3.80;;;1.70;;
35522;SDS011;61478;50.820;4.330;2023-07-22T10:33:46;4.38;;;1.67;;
35522;SDS011;61478;50.820;4.330;2023-07-22T10:36:14;7.38;;;2.17;;
35522;SDS011;61478;50.820;4.330;2023-07-22T10:38:43;4.90;;;1.60;;
35522;SDS011;61478;50.820;4.330;2023-07-22T10:41:20;4.32;;;1.95;;
35522;SDS011;61478;50.820;4.330;2023-07-22T10:43:56;5.05;;;2.15;;
35522;SDS011;61478;50.820;4.330;2023-07-22T10:49:09;6.75;;;2.00;;
35522;SDS011;61478;50.820;4.330;2023-07-22T10:51:37;8.32;;;2.00;;
35522;SDS011;61478;50.820;4.330;2023-07-22T10:54:03;3.67;;;1.88;;
35522;SDS011;61478;50.820;4.330;2023-07-22T10:56:37;7.78;;;2.60;;
35522;SDS011;61478;50.820;4.330;2023-07-22T10:59:03;3.17;;;1.88;;
35522;SDS011;61478;50.820;4.330;2023-07-22T11:01:33;14.82;;;3.40;;
35522;SDS011;61478;50.820;4.330;2023-07-22T11:04:10;4.97;;;2.30;;
35522;SDS011;61478;50.820;4.330;2023-07-22T11:06:51;4.32;;;2.30;;
35522;SDS011;61478;50.820;4.330;2023-07-22T11:14:45;3.45;;;2.13;;
35522;SDS011;61478;50.820;4.330;2023-07-22T11:17:11;8.30;;;3.08;;
35522;SDS011;61478;50.820;4.330;2023-07-22T11:19:37;7.75;;;2.58;;
35522;SDS011;61478;50.820;4.330;2023-07-22T11:22:04;3.33;;;2.30;;
35522;SDS011;61478;50.820;4.330;2023-07-22T11:24:32;5.47;;;2.42;;
35522;SDS011;61478;50.820;4.330;2023-07-22T11:26:59;7.72;;;2.67;;
35522;SDS011;61478;50.820;4.330;2023-07-22T11:29:33;8.88;;;2.30;;
35522;SDS011;61478;50.820;4.330;2023-07-22T11:32:00;7.80;;;2.78;;
35522;SDS011;61478;50.820;4.330;2023-07-22T11:34:26;5.25;;;2.22;;
35522;SDS011;61478;50.820;4.330;2023-07-22T11:36:53;3.83;;;2.00;;
35522;SDS011;61478;50.820;4.330;2023-07-22T11:39:20;3.88;;;2.03;;
35522;SDS011;61478;50.820;4.330;2023-07-22T11:41:48;3.70;;;2.25;;
35522;SDS011;61478;50.820;4.330;2023-07-22T11:44:15;5.72;;;2.42;;
35522;SDS011;61478;50.820;4.330;2023-07-22T11:49:23;6.55;;;2.45;;
35522;SDS011;61478;50.820;4.330;2023-07-22T11:51:51;6.88;;;2.40;;
35522;SDS011;61478;50.820;4.330;2023-07-22T11:54:29;8.10;;;2.00;;
35522;SDS011;61478;50.820;4.330;2023-07-22T11:56:56;5.65;;;2.47;;
35522;SDS011;61478;50.820;4.330;2023-07-22T11:59:35;4.65;;;2.33;;
35522;SDS011;61478;50.820;4.330;2023-07-22T12:02:03;4.30;;;2.67;;
35522;SDS011;61478;50.820;4.330;2023-07-22T12:04:34;3.28;;;2.13;;
35522;SDS011;61478;50.820;4.330;2023-07-22T12:07:01;3.70;;;2.47;;
35522;SDS011;61478;50.820;4.330;2023-07-22T12:09:29;25.10;;;21.08;;
35522;SDS011;61478;50.820;4.330;2023-07-22T12:11:58;8.70;;;3.22;;
35522;SDS011;61478;50.820;4.330;2023-07-22T12:14:32;3.15;;;2.30;;
35522;SDS011;61478;50.820;4.330;2023-07-22T12:17:02;5.07;;;2.13;;
35522;SDS011;61478;50.820;4.330;2023-07-22T12:19:28;3.47;;;2.10;;
35522;SDS011;61478;50.820;4.330;2023-07-22T12:21:57;4.13;;;2.17;;
35522;SDS011;61478;50.820;4.330;2023-07-22T12:24:23;4.38;;;1.70;;
35522;SDS011;61478;50.820;4.330;2023-07-22T12:26:49;3.97;;;2.28;;
35522;SDS011;61478;50.820;4.330;2023-07-22T12:29:15;5.75;;;2.10;;
35522;SDS011;61478;50.820;4.330;2023-07-22T12:31:41;3.55;;;1.60;;
35522;SDS011;61478;50.820;4.330;2023-07-22T12:34:07;4.25;;;2.20;;
35522;SDS011;61478;50.820;4.330;2023-07-22T12:36:33;4.85;;;1.65;;
35522;SDS011;61478;50.820;4.330;2023-07-22T12:38:58;7.95;;;2.00;;
35522;SDS011;61478;50.820;4.330;2023-07-22T12:41:24;6.75;;;1.85;;
35522;SDS011;61478;50.820;4.330;2023-07-22T12:43:50;3.72;;;2.03;;
35522;SDS011;61478;50.820;4.330;2023-07-22T12:46:17;3.28;;;1.85;;
35522;SDS011;61478;50.820;4.330;2023-07-22T12:48:42;6.63;;;2.20;;
35522;SDS011;61478;50.820;4.330;2023-07-22T12:51:08;5.85;;;2.35;;
35522;SDS011;61478;50.820;4.330;2023-07-22T12:53:34;3.47;;;2.28;;
35522;SDS011;61478;50.820;4.330;2023-07-22T12:56:00;8.75;;;2.25;;
35522;SDS011;61478;50.820;4.330;2023-07-22T12:58:31;3.42;;;2.38;;
35522;SDS011;61478;50.820;4.330;2023-07-22T13:00:57;4.20;;;1.63;;
35522;SDS011;61478;50.820;4.330;2023-07-22T13:03:23;3.60;;;2.20;;
35522;SDS011;61478;50.820;4.330;2023-07-22T13:05:49;7.13;;;2.38;;
35522;SDS011;61478;50.820;4.330;2023-07-22T13:08:15;9.48;;;2.33;;
35522;SDS011;61478;50.820;4.330;2023-07-22T13:10:41;3.72;;;2.10;;
35522;SDS011;61478;50.820;4.330;2023-07-22T13:13:09;6.43;;;2.25;;
35522;SDS011;61478;50.820;4.330;2023-07-22T13:15:38;7.70;;;2.13;;
35522;SDS011;61478;50.820;4.330;2023-07-22T13:18:04;6.10;;;2.47;;
35522;SDS011;61478;50.820;4.330;2023-07-22T13:20:30;1.95;;;1.70;;
35522;SDS011;61478;50.820;4.330;2023-07-22T13:22:56;4.78;;;2.05;;
35522;SDS011;61478;50.820;4.330;2023-07-22T13:25:22;5.32;;;2.15;;
35522;SDS011;61478;50.820;4.330;2023-07-22T13:27:48;5.70;;;2.58;;
35522;SDS011;61478;50.820;4.330;2023-07-22T13:30:14;7.22;;;3.25;;
35522;SDS011;61478;50.820;4.330;2023-07-22T13:32:40;4.70;;;1.88;;
35522;SDS011;61478;50.820;4.330;2023-07-22T13:35:06;3.03;;;1.90;;
35522;SDS011;61478;50.820;4.330;2023-07-22T13:37:34;3.95;;;1.85;;
35522;SDS011;61478;50.820;4.330;2023-07-22T13:40:00;3.08;;;2.15;;
35522;SDS011;61478;50.820;4.330;2023-07-22T13:42:26;5.75;;;2.35;;
35522;SDS011;61478;50.820;4.330;2023-07-22T13:44:52;5.32;;;2.58;;
35522;SDS011;61478;50.820;4.330;2023-07-22T13:47:18;6.10;;;2.55;;
35522;SDS011;61478;50.820;4.330;2023-07-22T13:49:44;6.95;;;2.60;;
35522;SDS011;61478;50.820;4.330;2023-07-22T13:52:10;3.65;;;2.25;;
35522;SDS011;61478;50.820;4.330;2023-07-22T13:54:35;4.35;;;2.15;;
35522;SDS011;61478;50.820;4.330;2023-07-22T13:57:01;4.53;;;2.40;;
35522;SDS011;61478;50.820;4.330;2023-07-22T13:59:27;5.97;;;2.75;;
35522;SDS011;61478;50.820;4.330;2023-07-22T14:01:53;6.18;;;2.90;;
35522;SDS011;61478;50.820;4.330;2023-07-22T14:04:19;4.18;;;2.45;;
35522;SDS011;61478;50.820;4.330;2023-07-22T14:06:47;2.95;;;2.00;;
35522;SDS011;61478;50.820;4.330;2023-07-22T14:09:13;4.22;;;2.35;;
35522;SDS011;61478;50.820;4.330;2023-07-22T14:11:39;5.95;;;2.83;;
35522;SDS011;61478;50.820;4.330;2023-07-22T14:14:06;8.35;;;2.30;;
35522;SDS011;61478;50.820;4.330;2023-07-22T14:16:35;8.98;;;2.40;;
35522;SDS011;61478;50.820;4.330;2023-07-22T14:19:00;8.43;;;2.55;;
35522;SDS011;61478;50.820;4.330;2023-07-22T14:21:26;11.20;;;2.47;;
35522;SDS011;61478;50.820;4.330;2023-07-22T14:23:52;4.50;;;2.05;;
35522;SDS011;61478;50.820;4.330;2023-07-22T14:26:19;4.47;;;2.72;;
35522;SDS011;61478;50.820;4.330;2023-07-22T14:28:45;8.38;;;2.95;;
35522;SDS011;61478;50.820;4.330;2023-07-22T14:31:25;4.60;;;2.15;;
35522;SDS011;61478;50.820;4.330;2023-07-22T14:33:52;6.22;;;2.22;;
35522;SDS011;61478;50.820;4.330;2023-07-22T14:36:18;5.03;;;2.35;;
35522;SDS011;61478;50.820;4.330;2023-07-22T14:38:43;5.10;;;1.98;;
35522;SDS011;61478;50.820;4.330;2023-07-22T14:41:10;7.45;;;2.75;;
35522;SDS011;61478;50.820;4.330;2023-07-22T14:43:37;6.38;;;2.15;;
35522;SDS011;61478;50.820;4.330;2023-07-22T14:46:03;5.38;;;1.98;;